sensor_id;sensor_type;location;lat;lon;timestamp;pressure;altitude;pressure_sealevel;temperature;humidity
41706;BME280;27385;51.096;17.190;2023-05-16T00:01:12;99577.23;;;10.50;90.60
41706;BME280;27385;51.096;17.190;2023-05-16T00:03:44;99580.30;;;10.48;90.70
41706;BME280;27385;51.096;17.190;2023-05-16T00:06:16;99585.88;;;10.46;90.76
41706;BME280;27385;51.096;17.190;2023-05-16T00:08:46;99583.11;;;10.43;90.59
41706;BME280;27385;51.096;17.190;2023-05-16T00:11:18;99582.73;;;10.41;90.58
41706;BME280;27385;51.096;17.190;2023-05-16T00:13:50;99579.17;;;10.39;90.41
41706;BME280;27385;51.096;17.190;2023-05-16T00:16:24;99586.30;;;10.37;90.27
41706;BME280;27385;51.096;17.190;2023-05-16T00:18:58;99584.84;;;10.34;90.09
41706;BME280;27385;51.096;17.190;2023-05-16T00:21:29;99590.17;;;10.29;90.09
41706;BME280;27385;51.096;17.190;2023-05-16T00:24:00;99594.75;;;10.26;90.33
41706;BME280;27385;51.096;17.190;2023-05-16T00:26:32;99594.32;;;10.22;90.37
41706;BME280;27385;51.096;17.190;2023-05-16T00:29:03;99597.13;;;10.20;90.39
41706;BME280;27385;51.096;17.190;2023-05-16T00:31:33;99594.96;;;10.16;90.20
41706;BME280;27385;51.096;17.190;2023-05-16T00:34:04;99595.86;;;10.13;90.22
41706;BME280;27385;51.096;17.190;2023-05-16T00:36:35;99596.05;;;10.10;90.28
41706;BME280;27385;51.096;17.190;2023-05-16T00:39:05;99597.02;;;10.08;90.48
41706;BME280;27385;51.096;17.190;2023-05-16T00:41:36;99596.86;;;10.06;90.37
41706;BME280;27385;51.096;17.190;2023-05-16T00:44:07;99596.23;;;10.04;90.51
41706;BME280;27385;51.096;17.190;2023-05-16T00:46:38;99600.27;;;10.03;90.44
41706;BME280;27385;51.096;17.190;2023-05-16T00:49:09;99598.73;;;10.01;90.77
41706;BME280;27385;51.096;17.190;2023-05-16T00:51:41;99600.77;;;10.02;90.88
41706;BME280;27385;51.096;17.190;2023-05-16T00:54:12;99598.64;;;10.01;90.81
41706;BME280;27385;51.096;17.190;2023-05-16T00:56:43;99603.97;;;10.01;90.95
41706;BME280;27385;51.096;17.190;2023-05-16T00:59:14;99603.33;;;10.03;91.08
41706;BME280;27385;51.096;17.190;2023-05-16T01:01:46;99599.66;;;10.03;91.03
41706;BME280;27385;51.096;17.190;2023-05-16T01:04:19;99602.64;;;10.01;91.24
41706;BME280;27385;51.096;17.190;2023-05-16T01:06:50;99606.33;;;10.01;91.41
41706;BME280;27385;51.096;17.190;2023-05-16T01:09:21;99612.25;;;9.99;91.53
41706;BME280;27385;51.096;17.190;2023-05-16T01:12:12;99609.70;;;9.98;91.41
41706;BME280;27385;51.096;17.190;2023-05-16T01:14:50;99608.71;;;9.96;91.29
41706;BME280;27385;51.096;17.190;2023-05-16T01:17:30;99604.42;;;9.93;91.34
41706;BME280;27385;51.096;17.190;2023-05-16T01:20:10;99603.84;;;9.92;91.66
41706;BME280;27385;51.096;17.190;2023-05-16T01:22:58;99615.27;;;9.93;91.74
41706;BME280;27385;51.096;17.190;2023-05-16T01:25:55;99615.88;;;9.93;91.90
41706;BME280;27385;51.096;17.190;2023-05-16T01:28:27;99621.86;;;9.93;92.11
41706;BME280;27385;51.096;17.190;2023-05-16T01:30:59;99623.33;;;9.92;92.25
41706;BME280;27385;51.096;17.190;2023-05-16T01:33:30;99620.74;;;9.93;92.40
41706;BME280;27385;51.096;17.190;2023-05-16T01:36:05;99624.28;;;9.92;92.63
41706;BME280;27385;51.096;17.190;2023-05-16T01:38:43;99625.90;;;9.92;92.59
41706;BME280;27385;51.096;17.190;2023-05-16T01:41:20;99628.04;;;9.92;92.65
41706;BME280;27385;51.096;17.190;2023-05-16T01:43:54;99626.15;;;9.92;92.83
41706;BME280;27385;51.096;17.190;2023-05-16T01:46:30;99628.34;;;9.93;92.68
41706;BME280;27385;51.096;17.190;2023-05-16T01:49:14;99630.71;;;9.91;92.87
41706;BME280;27385;51.096;17.190;2023-05-16T01:51:51;99637.14;;;9.90;92.72
41706;BME280;27385;51.096;17.190;2023-05-16T01:54:25;99644.02;;;9.90;92.85
41706;BME280;27385;51.096;17.190;2023-05-16T01:57:05;99647.80;;;9.91;93.11
41706;BME280;27385;51.096;17.190;2023-05-16T01:59:37;99650.63;;;9.91;92.92
41706;BME280;27385;51.096;17.190;2023-05-16T02:02:08;99648.11;;;9.91;92.69
41706;BME280;27385;51.096;17.190;2023-05-16T02:04:39;99651.23;;;9.91;92.72
41706;BME280;27385;51.096;17.190;2023-05-16T02:07:10;99652.56;;;9.88;92.49
41706;BME280;27385;51.096;17.190;2023-05-16T02:09:45;99652.15;;;9.86;92.41
41706;BME280;27385;51.096;17.190;2023-05-16T02:12:16;99654.34;;;9.83;92.41
41706;BME280;27385;51.096;17.190;2023-05-16T02:14:47;99663.09;;;9.82;92.52
41706;BME280;27385;51.096;17.190;2023-05-16T02:17:18;99664.98;;;9.79;92.39
41706;BME280;27385;51.096;17.190;2023-05-16T02:19:48;99667.20;;;9.78;92.39
41706;BME280;27385;51.096;17.190;2023-05-16T02:22:19;99661.75;;;9.76;92.49
41706;BME280;27385;51.096;17.190;2023-05-16T02:24:50;99654.97;;;9.74;92.62
41706;BME280;27385;51.096;17.190;2023-05-16T02:27:21;99652.73;;;9.72;92.55
41706;BME280;27385;51.096;17.190;2023-05-16T02:29:52;99653.30;;;9.70;92.61
41706;BME280;27385;51.096;17.190;2023-05-16T02:32:22;99652.34;;;9.69;92.51
41706;BME280;27385;51.096;17.190;2023-05-16T02:34:54;99656.98;;;9.67;92.43
41706;BME280;27385;51.096;17.190;2023-05-16T02:37:25;99660.59;;;9.64;92.57
41706;BME280;27385;51.096;17.190;2023-05-16T02:39:56;99665.41;;;9.61;92.46
41706;BME280;27385;51.096;17.190;2023-05-16T02:42:27;99664.85;;;9.57;92.30
41706;BME280;27385;51.096;17.190;2023-05-16T02:44:59;99667.05;;;9.52;92.27
41706;BME280;27385;51.096;17.190;2023-05-16T02:47:29;99666.84;;;9.47;92.08
41706;BME280;27385;51.096;17.190;2023-05-16T02:50:00;99664.50;;;9.44;92.00
41706;BME280;27385;51.096;17.190;2023-05-16T02:52:32;99662.27;;;9.40;91.97
41706;BME280;27385;51.096;17.190;2023-05-16T02:55:03;99660.94;;;9.39;92.29
41706;BME280;27385;51.096;17.190;2023-05-16T02:57:34;99670.53;;;9.40;92.10
41706;BME280;27385;51.096;17.190;2023-05-16T03:00:09;99671.45;;;9.38;92.08
41706;BME280;27385;51.096;17.190;2023-05-16T03:02:40;99676.14;;;9.36;91.96
41706;BME280;27385;51.096;17.190;2023-05-16T03:05:11;99670.45;;;9.35;91.90
41706;BME280;27385;51.096;17.190;2023-05-16T03:07:41;99667.54;;;9.33;91.84
41706;BME280;27385;51.096;17.190;2023-05-16T03:10:12;99662.75;;;9.31;91.83
41706;BME280;27385;51.096;17.190;2023-05-16T03:12:43;99665.67;;;9.30;91.95
41706;BME280;27385;51.096;17.190;2023-05-16T03:15:14;99669.77;;;9.27;91.77
41706;BME280;27385;51.096;17.190;2023-05-16T03:17:45;99673.09;;;9.24;91.91
41706;BME280;27385;51.096;17.190;2023-05-16T03:20:16;99678.83;;;9.23;91.89
41706;BME280;27385;51.096;17.190;2023-05-16T03:22:48;99676.89;;;9.22;91.94
41706;BME280;27385;51.096;17.190;2023-05-16T03:25:19;99672.88;;;9.21;92.00
41706;BME280;27385;51.096;17.190;2023-05-16T03:27:50;99664.52;;;9.20;91.88
41706;BME280;27385;51.096;17.190;2023-05-16T03:30:21;99666.15;;;9.19;92.04
41706;BME280;27385;51.096;17.190;2023-05-16T03:32:52;99670.00;;;9.18;92.00
41706;BME280;27385;51.096;17.190;2023-05-16T03:35:23;99676.57;;;9.17;92.04
41706;BME280;27385;51.096;17.190;2023-05-16T03:37:54;99684.60;;;9.16;92.08
41706;BME280;27385;51.096;17.190;2023-05-16T03:40:24;99686.92;;;9.16;92.13
41706;BME280;27385;51.096;17.190;2023-05-16T03:42:55;99689.80;;;9.16;92.19
41706;BME280;27385;51.096;17.190;2023-05-16T03:45:27;99689.21;;;9.16;92.26
41706;BME280;27385;51.096;17.190;2023-05-16T03:47:58;99700.06;;;9.17;92.34
41706;BME280;27385;51.096;17.190;2023-05-16T03:50:29;99701.46;;;9.16;92.53
41706;BME280;27385;51.096;17.190;2023-05-16T03:53:00;99701.02;;;9.17;92.52
41706;BME280;27385;51.096;17.190;2023-05-16T03:55:32;99706.61;;;9.19;92.76
41706;BME280;27385;51.096;17.190;2023-05-16T03:58:03;99710.02;;;9.22;92.92
41706;BME280;27385;51.096;17.190;2023-05-16T04:00:34;99714.31;;;9.24;92.96
41706;BME280;27385;51.096;17.190;2023-05-16T04:03:05;99715.06;;;9.28;93.16
41706;BME280;27385;51.096;17.190;2023-05-16T04:05:35;99724.09;;;9.32;93.49
41706;BME280;27385;51.096;17.190;2023-05-16T04:08:07;99731.08;;;9.36;93.42
41706;BME280;27385;51.096;17.190;2023-05-16T04:10:37;99742.21;;;9.40;93.63
41706;BME280;27385;51.096;17.190;2023-05-16T04:13:08;99749.84;;;9.46;93.73
41706;BME280;27385;51.096;17.190;2023-05-16T04:15:39;99754.14;;;9.52;93.83
41706;BME280;27385;51.096;17.190;2023-05-16T04:18:11;99761.46;;;9.57;94.26
41706;BME280;27385;51.096;17.190;2023-05-16T04:20:43;99766.02;;;9.63;94.42
41706;BME280;27385;51.096;17.190;2023-05-16T04:23:16;99768.67;;;9.68;94.32
41706;BME280;27385;51.096;17.190;2023-05-16T04:25:46;99772.20;;;9.73;94.57
41706;BME280;27385;51.096;17.190;2023-05-16T04:28:18;99776.64;;;9.79;94.91
41706;BME280;27385;51.096;17.190;2023-05-16T04:30:49;99786.52;;;9.86;94.56
41706;BME280;27385;51.096;17.190;2023-05-16T04:33:20;99781.23;;;9.92;94.92
41706;BME280;27385;51.096;17.190;2023-05-16T04:35:51;99778.80;;;9.98;95.13
41706;BME280;27385;51.096;17.190;2023-05-16T04:38:23;99772.90;;;10.05;95.17
41706;BME280;27385;51.096;17.190;2023-05-16T04:40:54;99754.33;;;10.11;95.28
41706;BME280;27385;51.096;17.190;2023-05-16T04:43:25;99746.52;;;10.18;95.28
41706;BME280;27385;51.096;17.190;2023-05-16T04:45:55;99741.84;;;10.25;95.57
41706;BME280;27385;51.096;17.190;2023-05-16T04:48:29;99743.98;;;10.34;95.66
41706;BME280;27385;51.096;17.190;2023-05-16T04:51:00;99758.20;;;10.44;95.73
41706;BME280;27385;51.096;17.190;2023-05-16T04:53:31;99761.64;;;10.51;95.62
41706;BME280;27385;51.096;17.190;2023-05-16T04:56:02;99765.36;;;10.58;95.57
41706;BME280;27385;51.096;17.190;2023-05-16T04:58:35;99758.91;;;10.66;95.52
41706;BME280;27385;51.096;17.190;2023-05-16T05:01:06;99763.33;;;10.75;95.62
41706;BME280;27385;51.096;17.190;2023-05-16T05:03:37;99772.44;;;10.83;95.52
41706;BME280;27385;51.096;17.190;2023-05-16T05:06:07;99786.30;;;10.93;95.91
41706;BME280;27385;51.096;17.190;2023-05-16T05:08:38;99790.52;;;11.03;96.04
41706;BME280;27385;51.096;17.190;2023-05-16T05:11:09;99805.09;;;11.17;96.19
41706;BME280;27385;51.096;17.190;2023-05-16T05:13:40;99809.71;;;11.28;96.37
41706;BME280;27385;51.096;17.190;2023-05-16T05:16:11;99818.30;;;11.40;96.39
41706;BME280;27385;51.096;17.190;2023-05-16T05:18:41;99823.08;;;11.51;96.21
41706;BME280;27385;51.096;17.190;2023-05-16T05:21:12;99823.73;;;11.59;95.93
41706;BME280;27385;51.096;17.190;2023-05-16T05:23:43;99820.48;;;11.67;95.68
41706;BME280;27385;51.096;17.190;2023-05-16T05:26:14;99825.41;;;11.73;95.53
41706;BME280;27385;51.096;17.190;2023-05-16T05:28:45;99830.55;;;11.80;95.48
41706;BME280;27385;51.096;17.190;2023-05-16T05:31:15;99832.48;;;11.87;95.68
41706;BME280;27385;51.096;17.190;2023-05-16T05:33:47;99834.42;;;11.96;95.73
41706;BME280;27385;51.096;17.190;2023-05-16T05:36:19;99833.72;;;12.04;95.62
41706;BME280;27385;51.096;17.190;2023-05-16T05:38:49;99833.27;;;12.13;95.92
41706;BME280;27385;51.096;17.190;2023-05-16T05:41:20;99841.89;;;12.25;96.02
41706;BME280;27385;51.096;17.190;2023-05-16T05:43:51;99849.83;;;12.35;95.89
41706;BME280;27385;51.096;17.190;2023-05-16T05:46:22;99853.82;;;12.47;95.09
41706;BME280;27385;51.096;17.190;2023-05-16T05:48:54;99843.52;;;12.56;94.36
41706;BME280;27385;51.096;17.190;2023-05-16T05:51:25;99848.66;;;12.65;94.45
41706;BME280;27385;51.096;17.190;2023-05-16T05:53:55;99851.75;;;12.72;94.11
41706;BME280;27385;51.096;17.190;2023-05-16T05:56:27;99851.40;;;12.74;93.21
41706;BME280;27385;51.096;17.190;2023-05-16T05:58:57;99843.56;;;12.77;92.68
41706;BME280;27385;51.096;17.190;2023-05-16T06:01:28;99840.81;;;12.78;92.83
41706;BME280;27385;51.096;17.190;2023-05-16T06:03:59;99843.48;;;12.81;92.93
41706;BME280;27385;51.096;17.190;2023-05-16T06:06:30;99847.83;;;12.85;92.83
41706;BME280;27385;51.096;17.190;2023-05-16T06:09:00;99846.71;;;12.89;93.00
41706;BME280;27385;51.096;17.190;2023-05-16T06:11:31;99848.52;;;12.94;93.02
41706;BME280;27385;51.096;17.190;2023-05-16T06:14:02;99847.20;;;12.99;92.61
41706;BME280;27385;51.096;17.190;2023-05-16T06:16:33;99846.57;;;13.04;92.91
41706;BME280;27385;51.096;17.190;2023-05-16T06:19:04;99845.27;;;13.11;93.00
41706;BME280;27385;51.096;17.190;2023-05-16T06:21:36;99849.06;;;13.19;92.51
41706;BME280;27385;51.096;17.190;2023-05-16T06:24:07;99854.98;;;13.25;92.13
41706;BME280;27385;51.096;17.190;2023-05-16T06:26:37;99856.17;;;13.28;92.18
41706;BME280;27385;51.096;17.190;2023-05-16T06:29:08;99856.48;;;13.33;92.01
41706;BME280;27385;51.096;17.190;2023-05-16T06:31:39;99856.34;;;13.37;91.56
41706;BME280;27385;51.096;17.190;2023-05-16T06:34:10;99865.22;;;13.42;92.14
41706;BME280;27385;51.096;17.190;2023-05-16T06:36:40;99872.36;;;13.47;91.43
41706;BME280;27385;51.096;17.190;2023-05-16T06:39:13;99867.92;;;13.51;91.73
41706;BME280;27385;51.096;17.190;2023-05-16T06:41:44;99868.49;;;13.59;91.93
41706;BME280;27385;51.096;17.190;2023-05-16T06:44:15;99868.23;;;13.61;90.75
41706;BME280;27385;51.096;17.190;2023-05-16T06:46:45;99873.39;;;13.61;91.17
41706;BME280;27385;51.096;17.190;2023-05-16T06:49:16;99878.70;;;13.61;90.41
41706;BME280;27385;51.096;17.190;2023-05-16T06:51:47;99882.06;;;13.60;90.34
41706;BME280;27385;51.096;17.190;2023-05-16T06:54:18;99882.98;;;13.60;90.38
41706;BME280;27385;51.096;17.190;2023-05-16T06:56:49;99876.14;;;13.63;90.64
41706;BME280;27385;51.096;17.190;2023-05-16T06:59:19;99872.17;;;13.70;91.25
41706;BME280;27385;51.096;17.190;2023-05-16T07:01:50;99875.95;;;13.81;91.30
41706;BME280;27385;51.096;17.190;2023-05-16T07:04:21;99879.73;;;13.92;90.87
41706;BME280;27385;51.096;17.190;2023-05-16T07:06:52;99887.53;;;14.04;91.12
41706;BME280;27385;51.096;17.190;2023-05-16T07:09:23;99883.43;;;14.13;91.03
41706;BME280;27385;51.096;17.190;2023-05-16T07:11:54;99892.46;;;14.20;91.02
41706;BME280;27385;51.096;17.190;2023-05-16T07:14:25;99889.74;;;14.26;90.34
41706;BME280;27385;51.096;17.190;2023-05-16T07:16:56;99883.44;;;14.30;90.20
41706;BME280;27385;51.096;17.190;2023-05-16T07:19:26;99881.64;;;14.37;90.32
41706;BME280;27385;51.096;17.190;2023-05-16T07:21:57;99877.86;;;14.42;90.39
41706;BME280;27385;51.096;17.190;2023-05-16T07:24:28;99872.98;;;14.49;90.39
41706;BME280;27385;51.096;17.190;2023-05-16T07:26:59;99872.70;;;14.57;90.66
41706;BME280;27385;51.096;17.190;2023-05-16T07:29:30;99868.59;;;14.64;90.16
41706;BME280;27385;51.096;17.190;2023-05-16T07:32:00;99867.81;;;14.70;89.30
41706;BME280;27385;51.096;17.190;2023-05-16T07:37:02;99870.27;;;14.70;88.37
41706;BME280;27385;51.096;17.190;2023-05-16T07:39:33;99875.05;;;14.72;88.53
41706;BME280;27385;51.096;17.190;2023-05-16T07:42:05;99875.21;;;14.73;88.20
41706;BME280;27385;51.096;17.190;2023-05-16T07:44:36;99878.02;;;14.73;88.19
41706;BME280;27385;51.096;17.190;2023-05-16T07:47:07;99877.66;;;14.74;88.48
41706;BME280;27385;51.096;17.190;2023-05-16T07:49:37;99877.11;;;14.81;88.75
41706;BME280;27385;51.096;17.190;2023-05-16T07:52:08;99879.00;;;14.83;87.98
41706;BME280;27385;51.096;17.190;2023-05-16T07:54:39;99881.03;;;14.87;88.36
41706;BME280;27385;51.096;17.190;2023-05-16T07:57:10;99888.11;;;14.93;88.16
41706;BME280;27385;51.096;17.190;2023-05-16T07:59:41;99893.60;;;14.99;87.79
41706;BME280;27385;51.096;17.190;2023-05-16T08:02:12;99901.48;;;15.08;87.95
41706;BME280;27385;51.096;17.190;2023-05-16T08:04:42;99905.75;;;15.14;87.16
41706;BME280;27385;51.096;17.190;2023-05-16T08:07:13;99902.89;;;15.22;87.24
41706;BME280;27385;51.096;17.190;2023-05-16T08:09:44;99899.27;;;15.28;86.83
41706;BME280;27385;51.096;17.190;2023-05-16T08:12:15;99907.02;;;15.25;85.69
41706;BME280;27385;51.096;17.190;2023-05-16T08:14:46;99909.23;;;15.22;86.05
41706;BME280;27385;51.096;17.190;2023-05-16T08:17:17;99913.56;;;15.25;85.30
41706;BME280;27385;51.096;17.190;2023-05-16T08:19:48;99914.79;;;15.35;86.33
41706;BME280;27385;51.096;17.190;2023-05-16T08:22:19;99916.64;;;15.47;85.91
41706;BME280;27385;51.096;17.190;2023-05-16T08:24:49;99915.48;;;15.55;85.99
41706;BME280;27385;51.096;17.190;2023-05-16T08:27:20;99918.77;;;15.66;85.88
41706;BME280;27385;51.096;17.190;2023-05-16T08:29:51;99925.34;;;15.78;85.55
41706;BME280;27385;51.096;17.190;2023-05-16T08:32:23;99928.80;;;15.83;84.43
41706;BME280;27385;51.096;17.190;2023-05-16T08:34:54;99930.36;;;15.84;83.46
41706;BME280;27385;51.096;17.190;2023-05-16T08:37:25;99927.27;;;15.87;84.04
41706;BME280;27385;51.096;17.190;2023-05-16T08:39:56;99931.33;;;15.98;84.08
41706;BME280;27385;51.096;17.190;2023-05-16T08:42:27;99935.27;;;16.03;83.78
41706;BME280;27385;51.096;17.190;2023-05-16T08:44:58;99940.27;;;16.07;83.07
41706;BME280;27385;51.096;17.190;2023-05-16T08:47:31;99940.96;;;16.10;82.14
41706;BME280;27385;51.096;17.190;2023-05-16T08:50:04;99941.45;;;16.20;83.21
41706;BME280;27385;51.096;17.190;2023-05-16T08:52:39;99950.44;;;16.28;82.44
41706;BME280;27385;51.096;17.190;2023-05-16T08:55:11;99951.64;;;16.26;81.95
41706;BME280;27385;51.096;17.190;2023-05-16T08:57:43;99951.58;;;16.21;81.39
41706;BME280;27385;51.096;17.190;2023-05-16T09:00:17;99951.95;;;16.27;81.01
41706;BME280;27385;51.096;17.190;2023-05-16T09:02:49;99956.84;;;16.40;81.06
41706;BME280;27385;51.096;17.190;2023-05-16T09:05:20;99955.95;;;16.46;79.99
41706;BME280;27385;51.096;17.190;2023-05-16T09:07:52;99958.92;;;16.46;80.16
41706;BME280;27385;51.096;17.190;2023-05-16T09:10:23;99959.73;;;16.43;79.42
41706;BME280;27385;51.096;17.190;2023-05-16T09:12:53;99967.50;;;16.38;79.16
41706;BME280;27385;51.096;17.190;2023-05-16T09:15:31;99963.96;;;16.39;78.81
41706;BME280;27385;51.096;17.190;2023-05-16T09:18:03;99967.45;;;16.45;80.05
41706;BME280;27385;51.096;17.190;2023-05-16T09:20:34;99972.48;;;16.58;79.33
41706;BME280;27385;51.096;17.190;2023-05-16T09:23:10;99976.48;;;16.72;78.40
41706;BME280;27385;51.096;17.190;2023-05-16T09:25:41;99967.59;;;16.79;78.01
41706;BME280;27385;51.096;17.190;2023-05-16T09:28:12;99966.76;;;16.90;78.46
41706;BME280;27385;51.096;17.190;2023-05-16T09:30:48;99968.45;;;16.96;77.41
41706;BME280;27385;51.096;17.190;2023-05-16T09:33:19;99974.55;;;16.95;77.54
41706;BME280;27385;51.096;17.190;2023-05-16T09:35:57;99979.08;;;16.93;76.65
41706;BME280;27385;51.096;17.190;2023-05-16T09:38:28;99988.73;;;16.86;76.44
41706;BME280;27385;51.096;17.190;2023-05-16T09:40:59;99995.38;;;16.84;75.95
41706;BME280;27385;51.096;17.190;2023-05-16T09:43:33;99999.64;;;16.88;76.67
41706;BME280;27385;51.096;17.190;2023-05-16T09:46:03;100005.27;;;16.99;75.53
41706;BME280;27385;51.096;17.190;2023-05-16T09:48:34;100005.16;;;17.09;75.26
41706;BME280;27385;51.096;17.190;2023-05-16T09:51:06;100000.50;;;17.17;74.15
41706;BME280;27385;51.096;17.190;2023-05-16T09:53:38;100004.23;;;17.27;74.87
41706;BME280;27385;51.096;17.190;2023-05-16T09:56:11;100010.15;;;17.34;74.71
41706;BME280;27385;51.096;17.190;2023-05-16T09:58:43;100016.15;;;17.34;74.71
41706;BME280;27385;51.096;17.190;2023-05-16T10:01:15;100020.90;;;17.33;74.18
41706;BME280;27385;51.096;17.190;2023-05-16T10:03:46;100021.84;;;17.31;73.71
41706;BME280;27385;51.096;17.190;2023-05-16T10:06:17;100021.93;;;17.32;73.86
41706;BME280;27385;51.096;17.190;2023-05-16T10:08:48;100019.25;;;17.42;74.13
41706;BME280;27385;51.096;17.190;2023-05-16T10:11:20;100013.59;;;17.52;73.02
41706;BME280;27385;51.096;17.190;2023-05-16T10:13:52;100013.69;;;17.57;72.94
41706;BME280;27385;51.096;17.190;2023-05-16T10:16:23;100012.17;;;17.55;72.65
41706;BME280;27385;51.096;17.190;2023-05-16T10:18:56;100010.16;;;17.56;72.78
41706;BME280;27385;51.096;17.190;2023-05-16T10:21:29;100010.58;;;17.59;72.58
41706;BME280;27385;51.096;17.190;2023-05-16T10:24:05;100002.36;;;17.60;71.78
41706;BME280;27385;51.096;17.190;2023-05-16T10:26:38;99998.67;;;17.62;72.00
41706;BME280;27385;51.096;17.190;2023-05-16T10:29:09;99994.64;;;17.69;71.51
41706;BME280;27385;51.096;17.190;2023-05-16T10:31:40;99996.80;;;17.79;71.61
41706;BME280;27385;51.096;17.190;2023-05-16T10:34:11;100006.67;;;17.89;70.98
41706;BME280;27385;51.096;17.190;2023-05-16T10:36:42;100007.09;;;17.92;70.47
41706;BME280;27385;51.096;17.190;2023-05-16T10:39:15;100004.72;;;17.90;69.91
41706;BME280;27385;51.096;17.190;2023-05-16T10:41:47;99999.74;;;17.86;69.63
41706;BME280;27385;51.096;17.190;2023-05-16T10:44:17;100004.13;;;17.88;69.39
41706;BME280;27385;51.096;17.190;2023-05-16T10:46:49;100008.39;;;17.95;68.83
41706;BME280;27385;51.096;17.190;2023-05-16T10:49:26;100006.77;;;17.94;68.33
41706;BME280;27385;51.096;17.190;2023-05-16T10:52:06;100004.18;;;17.97;69.12
41706;BME280;27385;51.096;17.190;2023-05-16T10:54:40;100010.84;;;18.04;68.70
41706;BME280;27385;51.096;17.190;2023-05-16T10:57:18;100015.45;;;18.00;68.23
41706;BME280;27385;51.096;17.190;2023-05-16T10:59:53;100009.89;;;17.87;68.31
41706;BME280;27385;51.096;17.190;2023-05-16T11:02:31;100010.73;;;17.78;67.93
41706;BME280;27385;51.096;17.190;2023-05-16T11:05:03;100009.77;;;17.74;67.67
41706;BME280;27385;51.096;17.190;2023-05-16T11:07:42;100003.95;;;17.78;67.42
41706;BME280;27385;51.096;17.190;2023-05-16T11:10:16;100000.03;;;17.83;66.79
41706;BME280;27385;51.096;17.190;2023-05-16T11:12:49;99998.11;;;17.89;67.57
41706;BME280;27385;51.096;17.190;2023-05-16T11:15:30;99993.55;;;18.02;67.30
41706;BME280;27385;51.096;17.190;2023-05-16T11:18:07;99995.66;;;18.08;66.74
41706;BME280;27385;51.096;17.190;2023-05-16T11:20:39;99994.94;;;18.12;66.20
41706;BME280;27385;51.096;17.190;2023-05-16T11:23:23;99989.20;;;18.14;65.88
41706;BME280;27385;51.096;17.190;2023-05-16T11:25:57;99994.52;;;18.12;65.93
41706;BME280;27385;51.096;17.190;2023-05-16T11:28:28;99992.36;;;18.12;66.85
41706;BME280;27385;51.096;17.190;2023-05-16T11:30:59;99993.91;;;18.12;66.45
41706;BME280;27385;51.096;17.190;2023-05-16T11:33:33;99998.19;;;18.11;67.12
41706;BME280;27385;51.096;17.190;2023-05-16T11:36:07;99996.36;;;18.16;66.59
41706;BME280;27385;51.096;17.190;2023-05-16T11:38:46;99988.83;;;18.18;66.70
41706;BME280;27385;51.096;17.190;2023-05-16T11:41:18;99981.15;;;18.19;66.66
41706;BME280;27385;51.096;17.190;2023-05-16T11:43:51;99982.13;;;18.16;66.72
41706;BME280;27385;51.096;17.190;2023-05-16T11:46:22;99988.55;;;18.13;67.84
41706;BME280;27385;51.096;17.190;2023-05-16T11:48:53;99987.84;;;18.09;67.47
41706;BME280;27385;51.096;17.190;2023-05-16T11:51:23;99991.19;;;18.05;67.91
41706;BME280;27385;51.096;17.190;2023-05-16T11:53:54;99993.83;;;18.00;68.04
41706;BME280;27385;51.096;17.190;2023-05-16T11:56:26;99996.06;;;17.92;68.23
41706;BME280;27385;51.096;17.190;2023-05-16T11:58:57;99992.70;;;17.82;68.18
41706;BME280;27385;51.096;17.190;2023-05-16T12:01:34;99998.45;;;17.75;68.53
41706;BME280;27385;51.096;17.190;2023-05-16T12:04:09;99999.90;;;17.68;68.61
41706;BME280;27385;51.096;17.190;2023-05-16T12:06:42;100005.39;;;17.64;69.15
41706;BME280;27385;51.096;17.190;2023-05-16T12:09:19;100010.19;;;17.61;69.59
41706;BME280;27385;51.096;17.190;2023-05-16T12:11:53;100006.22;;;17.51;69.25
41706;BME280;27385;51.096;17.190;2023-05-16T12:14:23;100002.90;;;17.47;69.92
41706;BME280;27385;51.096;17.190;2023-05-16T12:16:55;100002.36;;;17.46;70.03
41706;BME280;27385;51.096;17.190;2023-05-16T12:19:26;99995.83;;;17.48;70.42
41706;BME280;27385;51.096;17.190;2023-05-16T12:21:57;100008.94;;;17.51;70.05
41706;BME280;27385;51.096;17.190;2023-05-16T12:24:31;100008.33;;;17.41;69.77
41706;BME280;27385;51.096;17.190;2023-05-16T12:27:02;100006.77;;;17.39;70.09
41706;BME280;27385;51.096;17.190;2023-05-16T12:29:33;100009.18;;;17.37;70.06
41706;BME280;27385;51.096;17.190;2023-05-16T12:32:05;100011.72;;;17.32;70.00
41706;BME280;27385;51.096;17.190;2023-05-16T12:34:38;100013.73;;;17.27;70.14
41706;BME280;27385;51.096;17.190;2023-05-16T12:37:08;100009.00;;;17.23;70.35
41706;BME280;27385;51.096;17.190;2023-05-16T12:39:39;100007.02;;;17.22;70.52
41706;BME280;27385;51.096;17.190;2023-05-16T12:42:12;100011.05;;;17.18;70.47
41706;BME280;27385;51.096;17.190;2023-05-16T12:44:45;100006.16;;;17.24;70.85
41706;BME280;27385;51.096;17.190;2023-05-16T12:47:16;100010.21;;;17.28;71.02
41706;BME280;27385;51.096;17.190;2023-05-16T12:49:47;100018.12;;;17.23;71.41
41706;BME280;27385;51.096;17.190;2023-05-16T12:52:27;100018.61;;;17.17;71.14
41706;BME280;27385;51.096;17.190;2023-05-16T12:54:59;100019.33;;;17.07;71.22
41706;BME280;27385;51.096;17.190;2023-05-16T12:57:29;100022.76;;;16.99;71.27
41706;BME280;27385;51.096;17.190;2023-05-16T13:00:00;100026.25;;;16.94;71.96
41706;BME280;27385;51.096;17.190;2023-05-16T13:02:31;100026.90;;;16.89;72.34
41706;BME280;27385;51.096;17.190;2023-05-16T13:05:02;100024.21;;;16.87;71.98
41706;BME280;27385;51.096;17.190;2023-05-16T13:07:33;100024.59;;;16.85;72.25
41706;BME280;27385;51.096;17.190;2023-05-16T13:10:05;100032.30;;;16.87;72.38
41706;BME280;27385;51.096;17.190;2023-05-16T13:12:36;100034.08;;;16.80;72.11
41706;BME280;27385;51.096;17.190;2023-05-16T13:15:09;100032.98;;;16.71;72.56
41706;BME280;27385;51.096;17.190;2023-05-16T13:17:40;100030.48;;;16.63;72.51